Time;durP1;ratioP1;P1;durP2;ratioP2;P2;SDS_P1;SDS_P2;PMS_P1;PMS_P2;Temp;Humidity;BMP_temperature;BMP_pressure;BME280_temperature;BME280_humidity;BME280_pressure;Samples;Min_cycle;Max_cycle;Signal;HPM_P1;HPM_P2
2023/04/27 00:01:25;;;;;;;2.75;2.25;;;;;;;;;;5094542;28;20391;-80
2023/04/27 00:03:51;;;;;;;2.43;2.23;;;;;;;;;;5094854;28;20820;-79
2023/04/27 00:06:17;;;;;;;2.72;2.42;;;;;;;;;;5094177;28;20390;-80
2023/04/27 00:08:43;;;;;;;2.75;2.25;;;;;;;;;;5094568;28;20906;-80
2023/04/27 00:11:09;;;;;;;2.10;1.92;;;;;;;;;;5094409;28;20371;-80
2023/04/27 00:13:35;;;;;;;2.60;2.40;;;;;;;;;;5094486;28;20871;-80
2023/04/27 00:16:02;;;;;;;2.72;2.53;;;;;;;;;;5094434;28;20389;-80
2023/04/27 00:18:29;;;;;;;3.00;2.38;;;;;;;;;;5094001;28;20472;-80
2023/04/27 00:20:55;;;;;;;2.15;1.95;;;;;;;;;;5094332;28;20382;-80
2023/04/27 00:23:21;;;;;;;2.28;2.00;;;;;;;;;;5094257;28;20378;-80
2023/04/27 00:25:47;;;;;;;2.90;1.97;;;;;;;;;;5093866;28;20567;-80
2023/04/27 00:28:13;;;;;;;2.33;2.10;;;;;;;;;;5094085;28;20824;-80
2023/04/27 00:30:39;;;;;;;2.25;1.95;;;;;;;;;;5094138;28;20374;-80
2023/04/27 00:33:05;;;;;;;2.33;2.13;;;;;;;;;;5094162;28;20879;-79
2023/04/27 00:35:32;;;;;;;2.40;2.20;;;;;;;;;;5093608;28;20716;-80
2023/04/27 00:37:58;;;;;;;2.95;2.30;;;;;;;;;;5093950;28;20382;-80
2023/04/27 00:40:24;;;;;;;2.70;2.13;;;;;;;;;;5093811;28;20507;-80
2023/04/27 00:42:50;;;;;;;3.00;2.15;;;;;;;;;;5093983;28;20417;-80
2023/04/27 00:45:16;;;;;;;3.25;2.42;;;;;;;;;;5093810;28;20883;-80
2023/04/27 00:47:43;;;;;;;2.93;2.40;;;;;;;;;;5093793;28;20405;-79
2023/04/27 00:50:10;;;;;;;2.42;2.22;;;;;;;;;;5093914;28;20431;-79
2023/04/27 00:52:37;;;;;;;2.85;2.60;;;;;;;;;;5093852;28;20370;-79
2023/04/27 00:55:04;;;;;;;2.67;2.33;;;;;;;;;;5093791;28;20859;-80
2023/04/27 00:57:30;;;;;;;3.42;2.30;;;;;;;;;;5093396;28;20907;-80
2023/04/27 00:59:56;;;;;;;3.00;2.65;;;;;;;;;;5093665;28;20378;-79
2023/04/27 01:02:22;;;;;;;2.92;2.55;;;;;;;;;;5093605;28;21129;-80
2023/04/27 01:04:49;;;;;;;2.70;2.40;;;;;;;;;;5093453;28;20386;-80
2023/04/27 01:07:16;;;;;;;3.05;2.75;;;;;;;;;;5093364;28;20493;-80
2023/04/27 01:09:42;;;;;;;2.60;2.40;;;;;;;;;;5093328;28;20408;-80
2023/04/27 01:12:08;;;;;;;2.67;2.47;;;;;;;;;;5093277;28;20386;-80
2023/04/27 01:14:35;;;;;;;2.60;2.40;;;;;;;;;;5093236;28;20402;-79
2023/04/27 01:17:01;;;;;;;3.30;2.50;;;;;;;;;;5092691;28;20433;-79
2023/04/27 01:19:27;;;;;;;2.80;2.40;;;;;;;;;;5092073;28;21216;-80
2023/04/27 01:21:53;;;;;;;2.50;2.30;;;;;;;;;;5075153;28;20394;-79
2023/04/27 01:24:20;;;;;;;3.30;2.50;;;;;;;;;;5093193;28;20389;-80
2023/04/27 01:26:46;;;;;;;2.60;2.30;;;;;;;;;;5092305;28;20435;-80
2023/04/27 01:29:12;;;;;;;2.80;2.60;;;;;;;;;;5093149;28;20379;-80
2023/04/27 01:31:38;;;;;;;3.20;2.58;;;;;;;;;;5092857;28;20390;-80
2023/04/27 01:34:03;;;;;;;2.58;2.38;;;;;;;;;;5092935;28;20382;-79
2023/04/27 01:36:31;;;;;;;2.60;2.40;;;;;;;;;;5092877;28;20378;-80
2023/04/27 01:38:57;;;;;;;3.22;2.63;;;;;;;;;;5092466;28;20374;-79
2023/04/27 01:41:23;;;;;;;3.40;2.40;;;;;;;;;;5092689;28;20393;-80
2023/04/27 01:43:49;;;;;;;3.20;2.90;;;;;;;;;;5074492;28;20827;-79
2023/04/27 01:46:15;;;;;;;3.00;2.70;;;;;;;;;;5092608;28;20378;-80
2023/04/27 01:48:41;;;;;;;3.55;2.55;;;;;;;;;;5092538;28;20490;-80
2023/04/27 01:51:07;;;;;;;3.33;2.70;;;;;;;;;;5092963;28;20819;-80
2023/04/27 01:53:33;;;;;;;3.70;3.00;;;;;;;;;;5074402;28;20890;-79
2023/04/27 01:55:59;;;;;;;3.40;3.10;;;;;;;;;;5092521;28;20374;-80
2023/04/27 01:58:25;;;;;;;2.92;2.72;;;;;;;;;;5092435;28;20378;-79
2023/04/27 02:00:51;;;;;;;3.30;3.00;;;;;;;;;;5092410;28;20386;-80
2023/04/27 02:03:17;;;;;;;3.70;3.08;;;;;;;;;;5092451;28;20388;-79
2023/04/27 02:05:43;;;;;;;2.90;2.70;;;;;;;;;;5092018;28;20396;-80
2023/04/27 02:08:09;;;;;;;2.60;2.40;;;;;;;;;;5092106;28;20891;-79
2023/04/27 02:10:36;;;;;;;2.70;2.50;;;;;;;;;;5092277;28;20374;-80
2023/04/27 02:13:02;;;;;;;2.90;2.65;;;;;;;;;;5092085;28;20385;-80
2023/04/27 02:15:28;;;;;;;3.17;2.88;;;;;;;;;;5092247;28;20385;-80
2023/04/27 02:17:54;;;;;;;2.60;2.40;;;;;;;;;;5083200;28;20423;-79
2023/04/27 02:20:20;;;;;;;2.70;2.50;;;;;;;;;;5075632;28;20458;-80
2023/04/27 02:22:47;;;;;;;2.80;2.60;;;;;;;;;;5081397;28;20505;-80
2023/04/27 02:25:13;;;;;;;2.50;2.30;;;;;;;;;;5085490;28;20389;-79
2023/04/27 02:27:39;;;;;;;2.70;2.50;;;;;;;;;;5090354;28;20497;-80
2023/04/27 02:30:06;;;;;;;3.20;2.60;;;;;;;;;;5091582;28;20417;-79
2023/04/27 02:32:32;;;;;;;2.70;2.50;;;;;;;;;;5091915;28;20378;-79
2023/04/27 02:34:58;;;;;;;2.55;2.30;;;;;;;;;;5091320;28;20461;-79
2023/04/27 02:37:24;;;;;;;3.20;2.50;;;;;;;;;;5091130;28;20442;-80
2023/04/27 02:39:50;;;;;;;3.35;2.63;;;;;;;;;;5091484;28;20373;-79
2023/04/27 02:42:17;;;;;;;2.72;2.47;;;;;;;;;;5091608;28;20385;-80
2023/04/27 02:44:43;;;;;;;2.65;2.42;;;;;;;;;;5091290;28;20381;-79
2023/04/27 02:47:09;;;;;;;3.25;2.90;;;;;;;;;;5091449;28;20766;-79
2023/04/27 02:49:35;;;;;;;2.70;2.50;;;;;;;;;;5091560;28;20516;-80
2023/04/27 02:52:01;;;;;;;3.25;2.92;;;;;;;;;;5072519;28;20871;-80
2023/04/27 02:54:27;;;;;;;2.65;2.45;;;;;;;;;;5073370;28;20378;-79
2023/04/27 02:56:53;;;;;;;2.63;2.42;;;;;;;;;;5091502;28;20382;-80
2023/04/27 02:59:19;;;;;;;2.83;2.47;;;;;;;;;;5090664;28;20422;-79
2023/04/27 03:01:45;;;;;;;3.08;2.80;;;;;;;;;;5091328;28;20421;-79
2023/04/27 03:04:13;;;;;;;2.88;2.60;;;;;;;;;;5091449;28;20734;-79
2023/04/27 03:06:40;;;;;;;2.80;2.50;;;;;;;;;;5091368;28;20385;-79
2023/04/27 03:09:06;;;;;;;2.88;2.67;;;;;;;;;;5090735;28;20432;-80
2023/04/27 03:11:32;;;;;;;4.03;2.88;;;;;;;;;;5090995;28;20383;-80
2023/04/27 03:13:58;;;;;;;3.22;2.92;;;;;;;;;;5091254;28;20375;-80
2023/04/27 03:16:24;;;;;;;2.80;2.60;;;;;;;;;;5069563;28;20412;-80
2023/04/27 03:18:50;;;;;;;3.30;3.10;;;;;;;;;;5071054;28;20436;-79
2023/04/27 03:21:16;;;;;;;3.55;3.03;;;;;;;;;;5070670;28;20391;-78
2023/04/27 03:23:42;;;;;;;3.08;2.88;;;;;;;;;;5070701;28;20745;-78
2023/04/27 03:26:09;;;;;;;3.20;2.90;;;;;;;;;;5066561;28;20474;-80
2023/04/27 03:28:35;;;;;;;3.65;2.83;;;;;;;;;;5066307;28;20892;-80
2023/04/27 03:31:04;;;;;;;3.20;2.88;;;;;;;;;;5063501;28;20478;-80
2023/04/27 03:33:30;;;;;;;3.17;2.60;;;;;;;;;;5068898;28;20376;-80
2023/04/27 03:35:57;;;;;;;3.00;2.70;;;;;;;;;;5062056;28;20389;-80
2023/04/27 03:38:26;;;;;;;3.38;2.40;;;;;;;;;;5053657;28;20423;-80
2023/04/27 03:40:52;;;;;;;2.80;2.60;;;;;;;;;;5050916;28;20409;-79
2023/04/27 03:43:19;;;;;;;2.90;2.63;;;;;;;;;;5055054;28;20429;-80
2023/04/27 03:45:45;;;;;;;3.15;2.70;;;;;;;;;;5064147;28;20382;-79
2023/04/27 03:48:11;;;;;;;3.10;2.80;;;;;;;;;;5070384;28;20491;-79
2023/04/27 03:50:37;;;;;;;2.92;2.70;;;;;;;;;;5055045;28;20406;-80
2023/04/27 03:53:03;;;;;;;2.83;2.60;;;;;;;;;;5048071;28;20466;-80
2023/04/27 03:55:30;;;;;;;3.35;3.05;;;;;;;;;;5049821;28;20389;-80
2023/04/27 03:57:56;;;;;;;3.20;2.90;;;;;;;;;;5050058;28;20380;-80
2023/04/27 04:00:22;;;;;;;3.10;2.83;;;;;;;;;;5050293;28;20451;-80
2023/04/27 04:02:48;;;;;;;3.37;3.07;;;;;;;;;;5052193;28;20392;-80
2023/04/27 04:05:14;;;;;;;3.67;2.90;;;;;;;;;;5053578;28;20456;-80
2023/04/27 04:07:40;;;;;;;3.70;2.88;;;;;;;;;;5053242;28;20459;-80
2023/04/27 04:10:07;;;;;;;5.17;3.30;;;;;;;;;;5072665;28;20410;-79
2023/04/27 04:12:33;;;;;;;3.28;2.97;;;;;;;;;;5073613;28;20538;-80
2023/04/27 04:14:59;;;;;;;3.60;3.30;;;;;;;;;;5073622;28;20776;-79
2023/04/27 04:17:25;;;;;;;3.65;3.35;;;;;;;;;;5086072;28;20406;-79
2023/04/27 04:19:51;;;;;;;3.65;3.35;;;;;;;;;;5094301;28;20435;-80
2023/04/27 04:22:17;;;;;;;3.63;3.33;;;;;;;;;;5093968;28;20390;-79
2023/04/27 04:24:43;;;;;;;3.50;3.20;;;;;;;;;;5094040;28;20755;-79
2023/04/27 04:27:09;;;;;;;3.58;3.28;;;;;;;;;;5093217;28;20412;-79
2023/04/27 04:29:35;;;;;;;3.90;2.97;;;;;;;;;;5094226;28;20382;-79
2023/04/27 04:32:01;;;;;;;3.78;2.97;;;;;;;;;;5094101;28;20389;-79
2023/04/27 04:34:28;;;;;;;4.32;3.40;;;;;;;;;;5093839;28;20370;-79
2023/04/27 04:36:56;;;;;;;3.60;3.03;;;;;;;;;;5093082;28;20777;-79
2023/04/27 04:39:22;;;;;;;3.03;2.60;;;;;;;;;;5093354;28;20385;-79
2023/04/27 04:41:48;;;;;;;3.30;2.67;;;;;;;;;;5093190;28;20863;-79
2023/04/27 04:44:19;;;;;;;3.17;2.60;;;;;;;;;;5093256;28;20382;-80
2023/04/27 04:46:45;;;;;;;3.13;2.83;;;;;;;;;;5091754;28;20370;-79
2023/04/27 04:49:11;;;;;;;4.20;2.80;;;;;;;;;;5088917;28;20404;-80
2023/04/27 04:51:41;;;;;;;4.50;3.00;;;;;;;;;;5088517;28;20469;-80
2023/04/27 04:54:07;;;;;;;3.85;3.08;;;;;;;;;;5091452;28;20390;-79
2023/04/27 04:56:33;;;;;;;3.50;2.60;;;;;;;;;;5091071;28;20401;-79
2023/04/27 04:58:59;;;;;;;4.68;3.40;;;;;;;;;;5087045;28;20378;-79
2023/04/27 05:01:26;;;;;;;4.07;2.97;;;;;;;;;;5090838;28;20425;-80
2023/04/27 05:03:52;;;;;;;2.97;2.78;;;;;;;;;;5071347;28;20391;-79
2023/04/27 05:06:18;;;;;;;3.60;3.15;;;;;;;;;;5090083;28;20890;-80
2023/04/27 05:08:44;;;;;;;3.33;3.08;;;;;;;;;;5091171;28;20401;-80
2023/04/27 05:11:10;;;;;;;3.75;2.88;;;;;;;;;;5093135;28;20370;-80
2023/04/27 05:13:39;;;;;;;3.40;3.10;;;;;;;;;;5088458;28;20423;-79
2023/04/27 05:16:06;;;;;;;3.30;3.00;;;;;;;;;;5085799;28;20374;-79
2023/04/27 05:18:32;;;;;;;3.97;3.20;;;;;;;;;;5092813;28;20732;-79
2023/04/27 05:20:58;;;;;;;3.97;3.33;;;;;;;;;;5091679;28;20386;-79
2023/04/27 05:23:24;;;;;;;3.38;3.08;;;;;;;;;;5091715;28;20386;-79
2023/04/27 05:25:50;;;;;;;3.40;3.10;;;;;;;;;;5092928;28;20414;-80
2023/04/27 05:28:16;;;;;;;4.05;3.40;;;;;;;;;;5092952;28;20456;-79
2023/04/27 05:30:42;;;;;;;4.05;3.75;;;;;;;;;;5092930;28;20942;-79
2023/04/27 05:33:08;;;;;;;3.50;3.00;;;;;;;;;;5092931;28;20464;-79
2023/04/27 05:35:35;;;;;;;4.25;3.13;;;;;;;;;;5092874;28;20370;-79
2023/04/27 05:38:01;;;;;;;4.05;3.65;;;;;;;;;;5092357;28;20406;-78
2023/04/27 05:40:27;;;;;;;4.28;3.45;;;;;;;;;;5092782;28;20465;-78
2023/04/27 05:42:53;;;;;;;3.95;3.45;;;;;;;;;;5092703;28;20416;-79
2023/04/27 05:45:19;;;;;;;3.60;3.20;;;;;;;;;;5092601;28;20370;-78
2023/04/27 05:47:45;;;;;;;3.83;3.22;;;;;;;;;;5092423;28;20451;-78
2023/04/27 05:50:11;;;;;;;3.63;3.33;;;;;;;;;;5092514;28;20374;-78
2023/04/27 05:52:38;;;;;;;4.00;3.70;;;;;;;;;;5092576;28;20370;-78
2023/04/27 05:55:04;;;;;;;3.67;3.37;;;;;;;;;;5092410;28;20394;-78
2023/04/27 05:57:30;;;;;;;3.50;3.20;;;;;;;;;;5092264;28;20377;-78
2023/04/27 05:59:56;;;;;;;5.03;3.95;;;;;;;;;;5092424;28;20377;-78
2023/04/27 06:02:22;;;;;;;3.67;3.38;;;;;;;;;;5092402;28;20374;-78
2023/04/27 06:04:48;;;;;;;4.22;3.83;;;;;;;;;;5092265;28;20408;-78
2023/04/27 06:07:15;;;;;;;4.05;3.65;;;;;;;;;;5092155;28;20488;-78
2023/04/27 06:09:41;;;;;;;5.03;4.00;;;;;;;;;;5078934;28;20485;-78
2023/04/27 06:12:08;;;;;;;4.95;4.25;;;;;;;;;;5092246;28;20374;-78
2023/04/27 06:14:35;;;;;;;4.53;4.13;;;;;;;;;;5092076;28;20386;-78
2023/04/27 06:17:01;;;;;;;4.45;4.05;;;;;;;;;;5091869;28;20402;-78
2023/04/27 06:19:27;;;;;;;5.53;3.88;;;;;;;;;;5092048;28;20374;-78
2023/04/27 06:21:56;;;;;;;4.95;4.10;;;;;;;;;;5092047;28;20740;-78
2023/04/27 06:24:22;;;;;;;4.30;3.70;;;;;;;;;;5091625;28;20461;-78
2023/04/27 06:26:49;;;;;;;4.18;3.78;;;;;;;;;;5091328;28;20386;-78
2023/04/27 06:29:15;;;;;;;3.95;3.65;;;;;;;;;;5091665;28;20434;-79
2023/04/27 06:31:41;;;;;;;4.03;3.50;;;;;;;;;;5091480;28;20418;-78
2023/04/27 06:34:07;;;;;;;5.28;4.50;;;;;;;;;;5090732;28;20968;-78
2023/04/27 06:36:33;;;;;;;4.35;3.95;;;;;;;;;;5091323;28;20374;-78
2023/04/27 06:38:59;;;;;;;4.30;3.90;;;;;;;;;;5091685;28;20370;-78
2023/04/27 06:41:25;;;;;;;4.10;3.80;;;;;;;;;;5091438;28;20913;-78
2023/04/27 06:43:52;;;;;;;4.40;4.00;;;;;;;;;;5089863;28;20380;-78
2023/04/27 06:46:18;;;;;;;4.43;4.00;;;;;;;;;;5091514;28;20473;-78
2023/04/27 06:48:45;;;;;;;4.50;4.10;;;;;;;;;;5091310;28;20500;-78
2023/04/27 06:51:11;;;;;;;4.22;3.83;;;;;;;;;;5091762;28;20847;-78
2023/04/27 06:53:37;;;;;;;5.85;3.92;;;;;;;;;;5091388;28;20374;-77
2023/04/27 06:56:04;;;;;;;5.47;4.40;;;;;;;;;;5091237;28;20381;-78
2023/04/27 06:58:30;;;;;;;4.07;3.78;;;;;;;;;;5084170;28;20381;-78
2023/04/27 07:00:56;;;;;;;4.47;4.07;;;;;;;;;;5090743;28;20390;-78
2023/04/27 07:03:22;;;;;;;4.73;3.63;;;;;;;;;;5073196;28;20998;-78
2023/04/27 07:05:50;;;;;;;4.22;3.83;;;;;;;;;;5090850;28;20394;-77
2023/04/27 07:08:16;;;;;;;4.13;3.78;;;;;;;;;;5091179;28;20394;-78
2023/04/27 07:10:42;;;;;;;4.57;4.05;;;;;;;;;;5086787;28;20376;-78
2023/04/27 07:13:08;;;;;;;4.63;4.22;;;;;;;;;;5088426;28;20751;-78
2023/04/27 07:15:34;;;;;;;5.13;4.65;;;;;;;;;;5090406;28;20374;-77
2023/04/27 07:18:00;;;;;;;5.20;4.63;;;;;;;;;;5090301;28;20921;-77
2023/04/27 07:20:26;;;;;;;4.93;4.25;;;;;;;;;;5089133;28;20447;-78
2023/04/27 07:22:52;;;;;;;4.50;4.10;;;;;;;;;;5075636;28;20840;-78
2023/04/27 07:25:19;;;;;;;4.55;4.18;;;;;;;;;;5090589;28;20378;-78
2023/04/27 07:27:45;;;;;;;4.82;4.43;;;;;;;;;;5090402;28;20413;-78
2023/04/27 07:30:13;;;;;;;4.88;4.43;;;;;;;;;;5088674;28;20378;-77
2023/04/27 07:32:42;;;;;;;4.45;3.97;;;;;;;;;;5091023;28;20374;-76
2023/04/27 07:35:08;;;;;;;4.63;4.22;;;;;;;;;;5090918;28;20428;-77
2023/04/27 07:37:36;;;;;;;5.50;4.18;;;;;;;;;;5091688;28;20789;-77
2023/04/27 07:40:09;;;;;;;4.85;4.38;;;;;;;;;;5095098;28;20855;-77
2023/04/27 07:42:38;;;;;;;4.43;4.03;;;;;;;;;;5082793;28;20866;-78
2023/04/27 07:45:04;;;;;;;5.15;4.40;;;;;;;;;;5094984;28;20381;-76
2023/04/27 07:47:31;;;;;;;5.75;4.18;;;;;;;;;;5094184;28;20462;-78
2023/04/27 07:49:57;;;;;;;5.05;4.65;;;;;;;;;;5093258;28;20455;-77
2023/04/27 07:52:23;;;;;;;6.10;4.70;;;;;;;;;;5094391;28;20992;-79
2023/04/27 07:54:49;;;;;;;5.30;4.80;;;;;;;;;;5094797;28;20382;-78
2023/04/27 07:57:15;;;;;;;5.38;4.93;;;;;;;;;;5061193;28;20399;-78
2023/04/27 07:59:41;;;;;;;5.70;5.20;;;;;;;;;;5080004;28;20458;-78
2023/04/27 08:02:07;;;;;;;5.97;5.40;;;;;;;;;;5094718;28;20874;-79
2023/04/27 08:04:33;;;;;;;5.78;5.25;;;;;;;;;;5094633;28;20425;-79
2023/04/27 08:06:59;;;;;;;5.88;4.68;;;;;;;;;;5094564;28;20457;-78
2023/04/27 08:09:25;;;;;;;5.47;4.85;;;;;;;;;;5094650;28;20431;-79
2023/04/27 08:11:51;;;;;;;5.38;4.88;;;;;;;;;;5094571;28;20846;-79
2023/04/27 08:14:17;;;;;;;5.53;5.03;;;;;;;;;;5094594;28;20847;-80
2023/04/27 08:16:44;;;;;;;5.53;5.03;;;;;;;;;;5072501;28;20915;-80
2023/04/27 08:19:10;;;;;;;5.50;4.78;;;;;;;;;;5074178;28;20392;-81
2023/04/27 08:21:37;;;;;;;5.40;4.90;;;;;;;;;;5072351;28;20815;-81
2023/04/27 08:24:03;;;;;;;6.43;5.80;;;;;;;;;;5073568;28;20468;-81
2023/04/27 08:26:29;;;;;;;6.32;5.60;;;;;;;;;;5073357;28;20884;-82
2023/04/27 08:28:56;;;;;;;6.85;5.40;;;;;;;;;;5073469;28;20407;-81
2023/04/27 08:31:22;;;;;;;7.27;6.57;;;;;;;;;;5074078;28;20809;-81
2023/04/27 08:33:48;;;;;;;6.93;6.22;;;;;;;;;;5073627;28;20887;-81
2023/04/27 08:36:14;;;;;;;6.85;6.22;;;;;;;;;;5073773;28;20372;-80
2023/04/27 08:38:40;;;;;;;6.65;5.20;;;;;;;;;;5074073;28;20865;-80
2023/04/27 08:41:06;;;;;;;7.63;5.93;;;;;;;;;;5074566;28;20732;-80
2023/04/27 08:43:34;;;;;;;5.97;5.50;;;;;;;;;;5073649;28;20376;-80
2023/04/27 08:46:01;;;;;;;7.82;5.85;;;;;;;;;;5073525;28;20730;-80
2023/04/27 08:48:27;;;;;;;6.75;6.00;;;;;;;;;;5073258;28;20756;-80
2023/04/27 08:50:53;;;;;;;6.70;5.70;;;;;;;;;;5067022;28;20891;-80
2023/04/27 08:53:21;;;;;;;8.65;6.10;;;;;;;;;;5073478;28;20518;-80
2023/04/27 08:55:47;;;;;;;13.57;6.97;;;;;;;;;;5072111;28;20745;-80
2023/04/27 08:58:13;;;;;;;8.60;6.03;;;;;;;;;;5074004;28;20380;-80
2023/04/27 09:00:43;;;;;;;5.25;4.80;;;;;;;;;;5074306;28;20386;-80
2023/04/27 09:03:18;;;;;;;6.57;5.53;;;;;;;;;;5074454;28;20422;-80
2023/04/27 09:05:47;;;;;;;5.70;5.10;;;;;;;;;;5074266;28;20474;-80
2023/04/27 09:08:13;;;;;;;10.07;6.45;;;;;;;;;;5073499;28;20412;-80
2023/04/27 09:10:46;;;;;;;4.50;4.10;;;;;;;;;;5074306;28;20404;-80
2023/04/27 09:13:13;;;;;;;4.78;4.35;;;;;;;;;;5074249;28;20359;-80
2023/04/27 09:15:45;;;;;;;7.03;4.40;;;;;;;;;;5074169;28;20472;-80
2023/04/27 09:18:16;;;;;;;5.93;5.32;;;;;;;;;;5092271;28;20493;-80
2023/04/27 09:20:42;;;;;;;7.65;6.85;;;;;;;;;;5094123;28;20407;-80
2023/04/27 09:23:08;;;;;;;6.32;5.22;;;;;;;;;;5093472;28;20378;-80
2023/04/27 09:25:34;;;;;;;5.03;4.53;;;;;;;;;;5094177;28;20450;-80
2023/04/27 09:28:01;;;;;;;7.17;6.47;;;;;;;;;;5093845;28;20409;-80
2023/04/27 09:30:28;;;;;;;6.60;5.05;;;;;;;;;;5093346;28;20378;-80
2023/04/27 09:32:59;;;;;;;5.88;5.25;;;;;;;;;;5093905;28;20406;-81
2023/04/27 09:35:26;;;;;;;6.63;5.85;;;;;;;;;;5093711;28;20457;-80
2023/04/27 09:37:53;;;;;;;5.20;4.70;;;;;;;;;;5093752;28;20851;-81
2023/04/27 09:40:25;;;;;;;5.68;4.60;;;;;;;;;;5093571;28;20386;-80
2023/04/27 09:42:51;;;;;;;4.18;3.83;;;;;;;;;;5093725;28;20378;-80
2023/04/27 09:45:18;;;;;;;4.07;3.67;;;;;;;;;;5093392;28;20379;-80
2023/04/27 09:47:45;;;;;;;4.88;4.47;;;;;;;;;;5093527;28;20412;-80
2023/04/27 09:50:14;;;;;;;4.13;3.53;;;;;;;;;;5075501;28;20859;-81
2023/04/27 09:52:40;;;;;;;4.72;4.25;;;;;;;;;;5093521;28;20375;-80
2023/04/27 09:55:09;;;;;;;5.03;4.38;;;;;;;;;;5093510;28;20386;-80
2023/04/27 09:57:44;;;;;;;5.10;4.60;;;;;;;;;;5093347;28;20386;-80
2023/04/27 10:00:15;;;;;;;5.90;4.83;;;;;;;;;;5093130;28;20478;-80
2023/04/27 10:03:01;;;;;;;5.65;5.15;;;;;;;;;;5093302;28;20383;-81
2023/04/27 10:05:37;;;;;;;6.18;5.13;;;;;;;;;;5052307;28;20386;-80
2023/04/27 10:08:05;;;;;;;6.05;5.00;;;;;;;;;;5093023;28;20408;-80
2023/04/27 10:10:41;;;;;;;4.88;3.80;;;;;;;;;;5093189;28;20376;-80
2023/04/27 10:13:07;;;;;;;5.50;4.30;;;;;;;;;;5093126;28;20452;-80
2023/04/27 10:15:39;;;;;;;4.70;4.10;;;;;;;;;;5093124;28;20440;-81
2023/04/27 10:18:06;;;;;;;4.40;4.00;;;;;;;;;;5092774;28;20406;-81
2023/04/27 10:20:33;;;;;;;4.72;3.80;;;;;;;;;;5093046;28;20385;-81
2023/04/27 10:22:59;;;;;;;4.77;3.63;;;;;;;;;;5074559;28;20803;-80
2023/04/27 10:25:27;;;;;;;4.55;3.40;;;;;;;;;;5092546;28;20390;-81
2023/04/27 10:27:58;;;;;;;3.33;3.00;;;;;;;;;;5092577;28;20883;-80
2023/04/27 10:30:25;;;;;;;4.10;3.60;;;;;;;;;;5091626;28;20393;-80
2023/04/27 10:32:52;;;;;;;3.97;3.33;;;;;;;;;;5092855;28;20409;-80
2023/04/27 10:35:19;;;;;;;4.68;3.40;;;;;;;;;;5092612;28;20374;-81
2023/04/27 10:37:46;;;;;;;4.90;4.28;;;;;;;;;;5092646;28;20374;-81
2023/04/27 10:40:16;;;;;;;4.10;3.40;;;;;;;;;;5092624;28;20398;-81
2023/04/27 10:42:45;;;;;;;3.17;2.87;;;;;;;;;;5092332;28;20452;-80
2023/04/27 10:45:14;;;;;;;3.20;2.90;;;;;;;;;;5092429;28;20378;-80
2023/04/27 10:47:44;;;;;;;4.68;3.75;;;;;;;;;;5092400;28;20962;-81
2023/04/27 10:50:12;;;;;;;4.55;2.85;;;;;;;;;;5092375;28;20374;-80
2023/04/27 10:52:48;;;;;;;3.95;2.63;;;;;;;;;;5074375;28;20388;-80
2023/04/27 10:55:17;;;;;;;5.20;2.47;;;;;;;;;;5092555;28;20873;-81
2023/04/27 10:57:50;;;;;;;3.25;2.75;;;;;;;;;;5092227;28;20423;-81
2023/04/27 11:00:30;;;;;;;4.35;3.20;;;;;;;;;;5092500;28;20386;-81
2023/04/27 11:02:57;;;;;;;4.13;2.90;;;;;;;;;;5074270;28;20421;-80
2023/04/27 11:05:32;;;;;;;6.45;3.70;;;;;;;;;;5092311;28;20379;-81
2023/04/27 11:08:11;;;;;;;3.55;3.00;;;;;;;;;;5091926;28;20424;-81
2023/04/27 11:10:42;;;;;;;4.45;2.50;;;;;;;;;;5092212;28;20409;-81
2023/04/27 11:13:12;;;;;;;4.10;2.58;;;;;;;;;;5091226;28;20382;-81
2023/04/27 11:15:44;;;;;;;4.78;2.95;;;;;;;;;;5092583;28;20389;-81
2023/04/27 11:18:11;;;;;;;2.50;2.10;;;;;;;;;;5091986;28;20402;-81
2023/04/27 11:20:37;;;;;;;1.05;0.82;;;;;;;;;;5092175;28;20398;-81
2023/04/27 11:23:03;;;;;;;1.50;0.90;;;;;;;;;;5078351;28;20383;-81
2023/04/27 11:25:29;;;;;;;1.60;1.00;;;;;;;;;;5092258;28;20736;-81
2023/04/27 11:27:55;;;;;;;2.28;0.98;;;;;;;;;;5092066;28;20447;-81
2023/04/27 11:30:22;;;;;;;1.98;1.15;;;;;;;;;;5091543;28;20374;-81
2023/04/27 11:32:48;;;;;;;1.20;1.10;;;;;;;;;;5092144;28;20412;-81
2023/04/27 11:35:14;;;;;;;2.15;1.48;;;;;;;;;;5091999;28;20371;-81
2023/04/27 11:37:41;;;;;;;1.33;1.23;;;;;;;;;;5092007;28;20527;-81
2023/04/27 11:40:08;;;;;;;3.50;1.20;;;;;;;;;;5091944;28;20378;-81
2023/04/27 11:42:34;;;;;;;1.85;1.30;;;;;;;;;;5092283;28;20469;-81
2023/04/27 11:45:07;;;;;;;1.88;1.35;;;;;;;;;;5092048;28;20882;-81
2023/04/27 11:47:36;;;;;;;3.25;1.35;;;;;;;;;;5091848;28;20501;-81
2023/04/27 11:50:05;;;;;;;2.72;1.42;;;;;;;;;;5091948;28;20380;-81
2023/04/27 11:52:34;;;;;;;2.45;2.00;;;;;;;;;;5091783;28;20366;-80
2023/04/27 11:55:01;;;;;;;2.50;1.60;;;;;;;;;;5092128;28;20388;-81
2023/04/27 11:57:34;;;;;;;2.88;1.83;;;;;;;;;;5091537;28;20716;-81
2023/04/27 12:00:01;;;;;;;2.58;1.92;;;;;;;;;;5091876;28;20408;-81
2023/04/27 12:02:29;;;;;;;1.73;1.52;;;;;;;;;;5092056;28;20387;-81
2023/04/27 12:04:55;;;;;;;1.20;1.10;;;;;;;;;;5091715;28;20461;-81
2023/04/27 12:07:21;;;;;;;2.17;1.45;;;;;;;;;;5091801;28;20384;-81
2023/04/27 12:09:48;;;;;;;2.30;1.60;;;;;;;;;;5091666;28;20421;-81
2023/04/27 12:12:17;;;;;;;2.92;1.60;;;;;;;;;;5092172;28;20385;-81
2023/04/27 12:14:43;;;;;;;1.42;1.23;;;;;;;;;;5091855;28;20374;-81
2023/04/27 12:17:09;;;;;;;1.33;1.17;;;;;;;;;;5091553;28;20398;-81
2023/04/27 12:19:36;;;;;;;1.67;1.50;;;;;;;;;;5091846;28;20465;-81
2023/04/27 12:22:03;;;;;;;1.87;1.47;;;;;;;;;;5091405;28;20378;-81
2023/04/27 12:24:29;;;;;;;1.20;1.08;;;;;;;;;;5093594;28;20879;-81
2023/04/27 12:26:55;;;;;;;1.83;1.30;;;;;;;;;;5092854;28;20388;-81
2023/04/27 12:29:21;;;;;;;1.98;1.45;;;;;;;;;;5095175;28;20409;-81
2023/04/27 12:31:47;;;;;;;2.05;1.10;;;;;;;;;;5095076;28;20460;-81
2023/04/27 12:34:13;;;;;;;1.05;0.82;;;;;;;;;;5095295;28;20416;-81
2023/04/27 12:36:40;;;;;;;1.58;1.10;;;;;;;;;;5094902;28;20370;-81
2023/04/27 12:39:13;;;;;;;1.33;1.10;;;;;;;;;;5094777;28;20374;-81
2023/04/27 12:41:39;;;;;;;2.13;1.30;;;;;;;;;;5092960;28;20374;-81
2023/04/27 12:44:05;;;;;;;2.03;1.40;;;;;;;;;;5094835;28;20796;-81
2023/04/27 12:46:31;;;;;;;1.83;1.17;;;;;;;;;;5094796;28;20382;-81
2023/04/27 12:48:57;;;;;;;1.30;1.00;;;;;;;;;;5094684;28;20414;-81
2023/04/27 12:51:23;;;;;;;1.60;1.20;;;;;;;;;;5094904;28;20366;-81
2023/04/27 12:53:49;;;;;;;1.10;1.00;;;;;;;;;;5094551;28;20370;-81
2023/04/27 12:56:15;;;;;;;2.17;1.40;;;;;;;;;;5094967;28;20384;-81
2023/04/27 12:58:41;;;;;;;2.60;1.33;;;;;;;;;;5094481;28;20386;-81
2023/04/27 13:01:13;;;;;;;2.03;1.65;;;;;;;;;;5094649;28;20381;-81
2023/04/27 13:03:40;;;;;;;2.50;1.80;;;;;;;;;;5094559;28;20370;-81
2023/04/27 13:06:07;;;;;;;3.30;1.77;;;;;;;;;;5094437;28;20374;-81
2023/04/27 13:08:33;;;;;;;2.23;1.87;;;;;;;;;;5094029;28;20463;-81
2023/04/27 13:10:59;;;;;;;2.85;1.85;;;;;;;;;;5094460;28;20390;-81
2023/04/27 13:13:25;;;;;;;2.53;1.83;;;;;;;;;;5093786;28;20499;-81
2023/04/27 13:15:51;;;;;;;3.00;2.17;;;;;;;;;;5094231;28;20423;-81
2023/04/27 13:18:17;;;;;;;1.85;1.75;;;;;;;;;;5094048;28;20872;-81
2023/04/27 13:20:43;;;;;;;3.80;2.30;;;;;;;;;;5094339;28;20477;-81
2023/04/27 13:23:09;;;;;;;2.80;1.98;;;;;;;;;;5094006;28;20388;-81
2023/04/27 13:25:35;;;;;;;3.85;2.10;;;;;;;;;;5094281;28;20410;-81
2023/04/27 13:28:01;;;;;;;5.63;2.20;;;;;;;;;;5093861;28;20795;-80
2023/04/27 13:30:27;;;;;;;2.00;1.70;;;;;;;;;;5093855;28;20373;-81
2023/04/27 13:32:53;;;;;;;2.72;1.83;;;;;;;;;;5093991;28;20443;-81
2023/04/27 13:35:19;;;;;;;3.08;2.22;;;;;;;;;;5092827;28;20730;-82
2023/04/27 13:37:46;;;;;;;2.88;2.17;;;;;;;;;;5093886;28;20418;-81
2023/04/27 13:40:13;;;;;;;3.03;2.30;;;;;;;;;;5093652;28;20386;-81
2023/04/27 13:42:39;;;;;;;3.05;2.08;;;;;;;;;;5093692;28;20427;-81
2023/04/27 13:45:05;;;;;;;2.30;2.00;;;;;;;;;;5075382;28;20732;-82
2023/04/27 13:47:38;;;;;;;3.55;1.80;;;;;;;;;;5093644;28;20446;-81
2023/04/27 13:50:07;;;;;;;1.88;1.50;;;;;;;;;;5093759;28;20370;-81
2023/04/27 13:52:34;;;;;;;2.35;1.95;;;;;;;;;;5093411;28;20451;-81
2023/04/27 13:55:00;;;;;;;3.13;1.90;;;;;;;;;;5093602;28;20755;-81
2023/04/27 13:57:26;;;;;;;3.70;1.90;;;;;;;;;;5102747;22;20435;-83
2023/04/27 13:59:52;;;;;;;2.67;1.60;;;;;;;;;;5039384;28;20382;-83
2023/04/27 14:02:18;;;;;;;2.00;1.40;;;;;;;;;;5053195;28;20389;-83
2023/04/27 14:04:44;;;;;;;1.88;1.38;;;;;;;;;;5053064;28;20393;-84
2023/04/27 14:07:10;;;;;;;2.35;1.75;;;;;;;;;;5052950;28;20377;-83
2023/04/27 14:09:36;;;;;;;3.50;1.57;;;;;;;;;;5052861;28;20894;-83
2023/04/27 14:12:03;;;;;;;2.20;1.70;;;;;;;;;;5052991;28;20456;-84
2023/04/27 14:14:29;;;;;;;1.80;1.52;;;;;;;;;;5067265;28;20390;-83
2023/04/27 14:16:56;;;;;;;3.80;1.57;;;;;;;;;;5066373;28;20382;-83
2023/04/27 14:19:22;;;;;;;2.60;1.70;;;;;;;;;;5053099;28;20385;-84
2023/04/27 14:21:50;;;;;;;4.10;1.92;;;;;;;;;;5052754;28;20377;-83
2023/04/27 14:24:16;;;;;;;3.53;2.30;;;;;;;;;;5052739;28;20421;-83
2023/04/27 14:26:43;;;;;;;3.17;2.25;;;;;;;;;;5052505;28;20393;-84
2023/04/27 14:29:11;;;;;;;3.80;2.30;;;;;;;;;;5052030;28;20409;-83
2023/04/27 14:31:38;;;;;;;2.75;2.13;;;;;;;;;;5052451;28;20822;-83
2023/04/27 14:34:04;;;;;;;3.63;2.13;;;;;;;;;;5052565;28;20731;-84
2023/04/27 14:36:31;;;;;;;4.15;2.20;;;;;;;;;;5039835;28;20449;-83
2023/04/27 14:38:57;;;;;;;2.90;2.05;;;;;;;;;;5051513;28;20385;-83
2023/04/27 14:41:23;;;;;;;3.58;2.42;;;;;;;;;;5052622;28;20412;-83